sensor_id;sensor_type;location;lat;lon;timestamp;pressure;altitude;pressure_sealevel;temperature;humidity
67697;BME280;54486;51.442;6.778;2023-05-24T00:01:03;102170.69;;;9.63;78.89
67697;BME280;54486;51.442;6.778;2023-05-24T00:03:30;102162.81;;;9.61;79.63
67697;BME280;54486;51.442;6.778;2023-05-24T00:06:00;102161.94;;;9.61;79.61
67697;BME280;54486;51.442;6.778;2023-05-24T00:08:29;102164.53;;;9.59;79.51
67697;BME280;54486;51.442;6.778;2023-05-24T00:10:56;102164.53;;;9.59;79.52
67697;BME280;54486;51.442;6.778;2023-05-24T00:13:23;102164.47;;;9.56;79.86
67697;BME280;54486;51.442;6.778;2023-05-24T00:15:51;102162.75;;;9.56;80.44
67697;BME280;54486;51.442;6.778;2023-05-24T00:18:18;102160.88;;;9.51;79.56
67697;BME280;54486;51.442;6.778;2023-05-24T00:20:45;102171.31;;;9.51;79.74
67697;BME280;54486;51.442;6.778;2023-05-24T00:23:13;102160.72;;;9.42;79.72
67697;BME280;54486;51.442;6.778;2023-05-24T00:25:40;102153.72;;;9.38;79.79
67697;BME280;54486;51.442;6.778;2023-05-24T00:28:07;102154.59;;;9.40;79.71
67697;BME280;54486;51.442;6.778;2023-05-24T00:30:35;102145.06;;;9.42;80.36
67697;BME280;54486;51.442;6.778;2023-05-24T00:33:02;102147.66;;;9.40;80.91
67697;BME280;54486;51.442;6.778;2023-05-24T00:35:30;102141.59;;;9.40;81.32
67697;BME280;54486;51.442;6.778;2023-05-24T00:37:57;102144.97;;;9.36;81.29
67697;BME280;54486;51.442;6.778;2023-05-24T00:40:24;102147.50;;;9.31;81.20
67697;BME280;54486;51.442;6.778;2023-05-24T00:42:51;102142.13;;;9.24;80.96
67697;BME280;54486;51.442;6.778;2023-05-24T00:45:18;102144.84;;;9.30;81.76
67697;BME280;54486;51.442;6.778;2023-05-24T00:47:46;102141.28;;;9.25;81.98
67697;BME280;54486;51.442;6.778;2023-05-24T00:50:14;102139.59;;;9.27;82.58
67697;BME280;54486;51.442;6.778;2023-05-24T00:52:43;102136.13;;;9.28;82.52
67697;BME280;54486;51.442;6.778;2023-05-24T00:55:12;102127.28;;;9.20;81.80
67697;BME280;54486;51.442;6.778;2023-05-24T00:57:39;102139.47;;;9.21;83.03
67697;BME280;54486;51.442;6.778;2023-05-24T01:00:07;102129.03;;;9.21;82.79
67697;BME280;54486;51.442;6.778;2023-05-24T01:02:34;102136.03;;;9.22;82.40
67697;BME280;54486;51.442;6.778;2023-05-24T01:05:03;102135.13;;;9.21;82.58
67697;BME280;54486;51.442;6.778;2023-05-24T01:10:13;102135.81;;;9.13;83.06
67697;BME280;54486;51.442;6.778;2023-05-24T01:18:15;102128.75;;;9.07;83.62
67697;BME280;54486;51.442;6.778;2023-05-24T01:20:44;102142.66;;;9.08;83.03
67697;BME280;54486;51.442;6.778;2023-05-24T01:29:01;102123.47;;;9.02;84.22
67697;BME280;54486;51.442;6.778;2023-05-24T01:31:29;102116.44;;;8.98;84.88
67697;BME280;54486;51.442;6.778;2023-05-24T01:33:56;102119.94;;;9.00;85.36
67697;BME280;54486;51.442;6.778;2023-05-24T01:36:24;102119.88;;;8.97;85.21
67697;BME280;54486;51.442;6.778;2023-05-24T01:38:50;102118.00;;;8.90;84.80
67697;BME280;54486;51.442;6.778;2023-05-24T01:41:26;102111.06;;;8.89;85.25
67697;BME280;54486;51.442;6.778;2023-05-24T01:44:06;102111.88;;;8.88;85.33
67697;BME280;54486;51.442;6.778;2023-05-24T01:46:37;102110.19;;;8.90;85.87
67697;BME280;54486;51.442;6.778;2023-05-24T01:51:48;102116.13;;;8.83;86.47
67697;BME280;54486;51.442;6.778;2023-05-24T01:54:20;102109.16;;;8.82;86.80
67697;BME280;54486;51.442;6.778;2023-05-24T01:56:51;102112.47;;;8.75;86.06
67697;BME280;54486;51.442;6.778;2023-05-24T01:59:21;102110.50;;;8.65;85.99
67697;BME280;54486;51.442;6.778;2023-05-24T02:01:49;102112.41;;;8.71;87.14
67697;BME280;54486;51.442;6.778;2023-05-24T02:04:16;102107.22;;;8.72;87.67
67697;BME280;54486;51.442;6.778;2023-05-24T02:06:43;102100.28;;;8.74;87.86
67697;BME280;54486;51.442;6.778;2023-05-24T02:09:11;102102.06;;;8.75;87.24
67697;BME280;54486;51.442;6.778;2023-05-24T02:11:38;102109.00;;;8.75;87.85
67697;BME280;54486;51.442;6.778;2023-05-24T02:14:05;102091.59;;;8.72;87.21
67697;BME280;54486;51.442;6.778;2023-05-24T02:16:32;102096.78;;;8.72;87.01
67697;BME280;54486;51.442;6.778;2023-05-24T02:18:59;102101.94;;;8.69;87.67
67697;BME280;54486;51.442;6.778;2023-05-24T02:21:26;102108.84;;;8.67;87.56
67697;BME280;54486;51.442;6.778;2023-05-24T02:23:54;102102.69;;;8.64;87.79
67697;BME280;54486;51.442;6.778;2023-05-24T02:26:21;102105.19;;;8.59;87.81
67697;BME280;54486;51.442;6.778;2023-05-24T02:28:49;102100.69;;;8.52;88.46
67697;BME280;54486;51.442;6.778;2023-05-24T02:31:17;102102.44;;;8.52;88.55
67697;BME280;54486;51.442;6.778;2023-05-24T02:33:44;102099.81;;;8.52;89.37
67697;BME280;54486;51.442;6.778;2023-05-24T02:36:11;102111.94;;;8.51;88.46
67697;BME280;54486;51.442;6.778;2023-05-24T02:38:39;102113.63;;;8.49;88.88
67697;BME280;54486;51.442;6.778;2023-05-24T02:41:06;102116.09;;;8.43;89.27
67697;BME280;54486;51.442;6.778;2023-05-24T02:43:34;102124.69;;;8.39;88.97
67697;BME280;54486;51.442;6.778;2023-05-24T02:46:01;102117.66;;;8.36;89.71
67697;BME280;54486;51.442;6.778;2023-05-24T02:48:28;102122.88;;;8.36;90.26
67697;BME280;54486;51.442;6.778;2023-05-24T02:50:55;102119.38;;;8.34;90.05
67697;BME280;54486;51.442;6.778;2023-05-24T02:53:25;102127.81;;;8.27;90.66
67697;BME280;54486;51.442;6.778;2023-05-24T02:55:52;102130.41;;;8.26;91.12
67697;BME280;54486;51.442;6.778;2023-05-24T02:58:19;102120.84;;;8.25;90.80
67697;BME280;54486;51.442;6.778;2023-05-24T03:00:46;102118.16;;;8.22;90.95
67697;BME280;54486;51.442;6.778;2023-05-24T03:03:13;102121.53;;;8.18;91.78
67697;BME280;54486;51.442;6.778;2023-05-24T03:05:40;102119.00;;;8.21;91.47
67697;BME280;54486;51.442;6.778;2023-05-24T03:08:07;102113.84;;;8.22;90.96
67697;BME280;54486;51.442;6.778;2023-05-24T03:10:34;102114.66;;;8.20;91.10
67697;BME280;54486;51.442;6.778;2023-05-24T03:13:02;102105.84;;;8.15;91.97
67697;BME280;54486;51.442;6.778;2023-05-24T03:15:29;102105.03;;;8.16;92.15
67697;BME280;54486;51.442;6.778;2023-05-24T03:17:56;102107.63;;;8.16;91.76
67697;BME280;54486;51.442;6.778;2023-05-24T03:20:24;102105.84;;;8.15;91.94
67697;BME280;54486;51.442;6.778;2023-05-24T03:22:51;102105.91;;;8.16;91.92
67697;BME280;54486;51.442;6.778;2023-05-24T03:25:19;102103.31;;;8.16;92.37
67697;BME280;54486;51.442;6.778;2023-05-24T03:27:46;102105.72;;;8.09;92.78
67697;BME280;54486;51.442;6.778;2023-05-24T03:30:13;102112.75;;;8.13;92.76
67697;BME280;54486;51.442;6.778;2023-05-24T03:32:42;102100.59;;;8.12;93.61
67697;BME280;54486;51.442;6.778;2023-05-24T03:35:09;102100.59;;;8.12;93.54
67697;BME280;54486;51.442;6.778;2023-05-24T03:37:38;102105.78;;;8.12;93.75
67697;BME280;54486;51.442;6.778;2023-05-24T03:40:05;102108.53;;;8.18;94.18
67697;BME280;54486;51.442;6.778;2023-05-24T03:42:32;102109.53;;;8.23;94.34
67697;BME280;54486;51.442;6.778;2023-05-24T03:45:00;102110.50;;;8.26;94.83
67697;BME280;54486;51.442;6.778;2023-05-24T03:47:26;102114.81;;;8.26;95.05
67697;BME280;54486;51.442;6.778;2023-05-24T03:49:55;102115.78;;;8.29;95.14
67697;BME280;54486;51.442;6.778;2023-05-24T03:52:23;102113.13;;;8.28;94.87
67697;BME280;54486;51.442;6.778;2023-05-24T03:54:51;102116.53;;;8.27;95.04
67697;BME280;54486;51.442;6.778;2023-05-24T03:57:18;102114.97;;;8.32;95.25
67697;BME280;54486;51.442;6.778;2023-05-24T03:59:45;102105.41;;;8.31;95.02
67697;BME280;54486;51.442;6.778;2023-05-24T04:02:12;102122.09;;;8.39;94.99
67697;BME280;54486;51.442;6.778;2023-05-24T04:04:40;102113.41;;;8.40;95.30
67697;BME280;54486;51.442;6.778;2023-05-24T04:07:08;102111.00;;;8.47;95.95
67697;BME280;54486;51.442;6.778;2023-05-24T04:09:37;102101.41;;;8.45;96.28
67697;BME280;54486;51.442;6.778;2023-05-24T04:12:06;102117.16;;;8.51;95.18
67697;BME280;54486;51.442;6.778;2023-05-24T04:14:33;102122.56;;;8.60;95.44
67697;BME280;54486;51.442;6.778;2023-05-24T04:17:02;102113.94;;;8.63;95.20
67697;BME280;54486;51.442;6.778;2023-05-24T04:19:31;102120.13;;;8.68;95.71
67697;BME280;54486;51.442;6.778;2023-05-24T04:21:58;102122.81;;;8.72;95.22
67697;BME280;54486;51.442;6.778;2023-05-24T04:24:26;102119.44;;;8.76;95.42
67697;BME280;54486;51.442;6.778;2023-05-24T04:26:53;102116.13;;;8.83;96.04
67697;BME280;54486;51.442;6.778;2023-05-24T04:29:20;102125.72;;;8.86;95.38
67697;BME280;54486;51.442;6.778;2023-05-24T04:31:47;102118.06;;;8.93;96.05
67697;BME280;54486;51.442;6.778;2023-05-24T04:34:15;102113.00;;;8.99;96.17
67697;BME280;54486;51.442;6.778;2023-05-24T04:36:44;102127.88;;;9.07;97.02
67697;BME280;54486;51.442;6.778;2023-05-24T04:39:11;102120.19;;;9.13;95.98
67697;BME280;54486;51.442;6.778;2023-05-24T04:41:38;102129.03;;;9.21;95.36
67697;BME280;54486;51.442;6.778;2023-05-24T04:44:05;102127.41;;;9.26;95.43
67697;BME280;54486;51.442;6.778;2023-05-24T04:46:33;102139.69;;;9.33;95.08
67697;BME280;54486;51.442;6.778;2023-05-24T04:49:02;102134.66;;;9.42;94.92
67697;BME280;54486;51.442;6.778;2023-05-24T04:51:31;102137.38;;;9.46;94.09
67697;BME280;54486;51.442;6.778;2023-05-24T04:53:59;102136.66;;;9.55;93.60
67697;BME280;54486;51.442;6.778;2023-05-24T04:56:27;102135.97;;;9.65;93.08
67697;BME280;54486;51.442;6.778;2023-05-24T04:58:54;102147.50;;;9.76;92.89
67697;BME280;54486;51.442;6.778;2023-05-24T05:01:21;102149.38;;;9.86;92.32
67697;BME280;54486;51.442;6.778;2023-05-24T05:03:48;102153.00;;;9.94;91.45
67697;BME280;54486;51.442;6.778;2023-05-24T05:06:15;102156.56;;;9.99;91.86
67697;BME280;54486;51.442;6.778;2023-05-24T05:08:43;102155.84;;;10.08;91.20
67697;BME280;54486;51.442;6.778;2023-05-24T05:11:12;102152.50;;;10.15;90.64
67697;BME280;54486;51.442;6.778;2023-05-24T05:13:40;102157.03;;;10.24;90.54
67697;BME280;54486;51.442;6.778;2023-05-24T05:16:07;102153.59;;;10.28;90.46
67697;BME280;54486;51.442;6.778;2023-05-24T05:18:36;102151.94;;;10.33;90.42
67697;BME280;54486;51.442;6.778;2023-05-24T05:21:03;102152.91;;;10.39;89.39
67697;BME280;54486;51.442;6.778;2023-05-24T05:23:31;102150.44;;;10.48;89.45
67697;BME280;54486;51.442;6.778;2023-05-24T05:25:58;102148.75;;;10.52;89.78
67697;BME280;54486;51.442;6.778;2023-05-24T05:28:26;102153.06;;;10.50;89.17
67697;BME280;54486;51.442;6.778;2023-05-24T05:30:53;102148.84;;;10.58;89.12
67697;BME280;54486;51.442;6.778;2023-05-24T05:33:22;102147.97;;;10.56;87.06
67697;BME280;54486;51.442;6.778;2023-05-24T05:35:49;102147.97;;;10.57;87.39
67697;BME280;54486;51.442;6.778;2023-05-24T05:38:24;102147.19;;;10.65;87.78
67697;BME280;54486;51.442;6.778;2023-05-24T05:40:51;102149.00;;;10.70;87.36
67697;BME280;54486;51.442;6.778;2023-05-24T05:43:18;102135.31;;;10.86;88.74
67697;BME280;54486;51.442;6.778;2023-05-24T05:45:46;102144.94;;;10.92;87.25
67697;BME280;54486;51.442;6.778;2023-05-24T05:48:13;102152.94;;;11.02;86.51
67697;BME280;54486;51.442;6.778;2023-05-24T05:50:40;102150.41;;;11.08;85.70
67697;BME280;54486;51.442;6.778;2023-05-24T05:53:08;102137.44;;;11.18;85.80
67697;BME280;54486;51.442;6.778;2023-05-24T05:55:34;102140.91;;;11.13;86.36
67697;BME280;54486;51.442;6.778;2023-05-24T05:58:03;102140.75;;;11.04;86.16
67697;BME280;54486;51.442;6.778;2023-05-24T06:00:31;102142.56;;;11.08;86.83
67697;BME280;54486;51.442;6.778;2023-05-24T06:02:58;102140.84;;;11.10;87.02
67697;BME280;54486;51.442;6.778;2023-05-24T06:05:25;102144.25;;;11.03;86.10
67697;BME280;54486;51.442;6.778;2023-05-24T06:07:53;102140.84;;;11.10;86.63
67697;BME280;54486;51.442;6.778;2023-05-24T06:10:21;102156.56;;;11.13;86.38
67697;BME280;54486;51.442;6.778;2023-05-24T06:12:49;102165.25;;;11.14;86.29
67697;BME280;54486;51.442;6.778;2023-05-24T06:15:17;102170.44;;;11.09;85.97
67697;BME280;54486;51.442;6.778;2023-05-24T06:17:44;102170.44;;;11.09;86.55
67697;BME280;54486;51.442;6.778;2023-05-24T06:20:14;102165.44;;;11.26;86.52
67697;BME280;54486;51.442;6.778;2023-05-24T06:22:42;102169.97;;;11.42;85.86
67697;BME280;54486;51.442;6.778;2023-05-24T06:25:11;102161.22;;;11.39;84.05
67697;BME280;54486;51.442;6.778;2023-05-24T06:27:41;102168.16;;;11.37;83.75
67697;BME280;54486;51.442;6.778;2023-05-24T06:30:08;102173.34;;;11.34;82.92
67697;BME280;54486;51.442;6.778;2023-05-24T06:32:35;102167.28;;;11.35;83.35
67697;BME280;54486;51.442;6.778;2023-05-24T06:35:03;102163.75;;;11.33;84.54
67697;BME280;54486;51.442;6.778;2023-05-24T06:37:30;102164.78;;;11.47;84.75
67697;BME280;54486;51.442;6.778;2023-05-24T06:39:58;102168.28;;;11.47;79.57
67697;BME280;54486;51.442;6.778;2023-05-24T06:42:25;102169.28;;;11.57;80.23
67697;BME280;54486;51.442;6.778;2023-05-24T06:44:53;102172.91;;;11.71;79.64
67697;BME280;54486;51.442;6.778;2023-05-24T06:47:21;102165.25;;;11.86;80.34
67697;BME280;54486;51.442;6.778;2023-05-24T06:49:48;102164.44;;;11.93;78.55
67697;BME280;54486;51.442;6.778;2023-05-24T06:52:16;102171.56;;;12.12;79.74
67697;BME280;54486;51.442;6.778;2023-05-24T06:54:43;102169.84;;;12.11;77.21
67697;BME280;54486;51.442;6.778;2023-05-24T06:57:13;102171.69;;;12.22;78.97
67697;BME280;54486;51.442;6.778;2023-05-24T06:59:41;102171.75;;;12.31;78.29
67697;BME280;54486;51.442;6.778;2023-05-24T07:02:08;102170.00;;;12.33;78.44
67697;BME280;54486;51.442;6.778;2023-05-24T07:04:36;102175.28;;;12.37;77.00
67697;BME280;54486;51.442;6.778;2023-05-24T07:07:03;102169.13;;;12.32;75.91
67697;BME280;54486;51.442;6.778;2023-05-24T07:09:30;102166.56;;;12.37;76.93
67697;BME280;54486;51.442;6.778;2023-05-24T07:11:58;102171.88;;;12.49;77.20
67697;BME280;54486;51.442;6.778;2023-05-24T07:14:26;102175.25;;;12.36;75.73
67697;BME280;54486;51.442;6.778;2023-05-24T07:16:53;102176.91;;;12.22;74.52
67697;BME280;54486;51.442;6.778;2023-05-24T07:19:24;102178.63;;;12.19;74.66
67697;BME280;54486;51.442;6.778;2023-05-24T07:21:55;102185.59;;;12.17;75.24
67697;BME280;54486;51.442;6.778;2023-05-24T07:24:23;102176.97;;;12.28;76.22
67697;BME280;54486;51.442;6.778;2023-05-24T07:26:50;102174.44;;;12.40;76.18
67697;BME280;54486;51.442;6.778;2023-05-24T07:29:19;102176.28;;;12.56;75.72
67697;BME280;54486;51.442;6.778;2023-05-24T07:31:47;102184.13;;;12.53;74.04
67697;BME280;54486;51.442;6.778;2023-05-24T07:34:14;102181.47;;;12.51;72.80
67697;BME280;54486;51.442;6.778;2023-05-24T07:36:42;102185.84;;;12.51;72.79
67697;BME280;54486;51.442;6.778;2023-05-24T07:39:09;102184.13;;;12.53;72.76
67697;BME280;54486;51.442;6.778;2023-05-24T07:41:37;102175.47;;;12.63;72.50
67697;BME280;54486;51.442;6.778;2023-05-24T07:44:04;102169.44;;;12.76;72.24
67697;BME280;54486;51.442;6.778;2023-05-24T07:46:31;102166.88;;;12.82;71.65
67697;BME280;54486;51.442;6.778;2023-05-24T07:48:58;102166.00;;;12.88;73.11
67697;BME280;54486;51.442;6.778;2023-05-24T07:51:26;102163.47;;;12.98;73.58
67697;BME280;54486;51.442;6.778;2023-05-24T07:53:53;102154.72;;;13.05;72.94
67697;BME280;54486;51.442;6.778;2023-05-24T07:56:21;102153.00;;;13.07;71.96
67697;BME280;54486;51.442;6.778;2023-05-24T07:58:48;102160.91;;;13.15;68.95
67697;BME280;54486;51.442;6.778;2023-05-24T08:01:17;102167.81;;;13.02;66.87
67697;BME280;54486;51.442;6.778;2023-05-24T08:03:45;102173.16;;;13.10;68.40
67697;BME280;54486;51.442;6.778;2023-05-24T08:06:13;102172.28;;;13.15;68.47
67697;BME280;54486;51.442;6.778;2023-05-24T08:08:41;102171.47;;;13.32;68.73
67697;BME280;54486;51.442;6.778;2023-05-24T08:11:08;102177.66;;;13.46;68.30
67697;BME280;54486;51.442;6.778;2023-05-24T08:13:35;102177.66;;;13.49;67.91
67697;BME280;54486;51.442;6.778;2023-05-24T08:16:04;102177.69;;;13.61;68.23
67697;BME280;54486;51.442;6.778;2023-05-24T08:18:32;102176.84;;;13.68;65.00
67697;BME280;54486;51.442;6.778;2023-05-24T08:20:58;102178.53;;;13.54;65.61
67697;BME280;54486;51.442;6.778;2023-05-24T08:23:26;102178.56;;;13.55;66.32
67697;BME280;54486;51.442;6.778;2023-05-24T08:25:56;102170.66;;;13.51;65.21
67697;BME280;54486;51.442;6.778;2023-05-24T08:28:25;102180.34;;;13.67;66.56
67697;BME280;54486;51.442;6.778;2023-05-24T08:30:52;102176.84;;;13.78;64.47
67697;BME280;54486;51.442;6.778;2023-05-24T08:33:20;102177.72;;;13.82;62.50
67697;BME280;54486;51.442;6.778;2023-05-24T08:35:50;102171.63;;;13.83;64.04
67697;BME280;54486;51.442;6.778;2023-05-24T08:38:17;102176.03;;;14.02;63.79
67697;BME280;54486;51.442;6.778;2023-05-24T08:40:46;102165.53;;;14.05;62.96
67697;BME280;54486;51.442;6.778;2023-05-24T08:43:15;102165.53;;;14.05;61.48
67697;BME280;54486;51.442;6.778;2023-05-24T08:45:44;102151.53;;;14.15;61.61
67697;BME280;54486;51.442;6.778;2023-05-24T08:48:12;102151.53;;;14.12;61.25
67697;BME280;54486;51.442;6.778;2023-05-24T08:50:41;102147.16;;;14.22;60.64
67697;BME280;54486;51.442;6.778;2023-05-24T08:53:08;102148.06;;;14.42;61.32
67697;BME280;54486;51.442;6.778;2023-05-24T08:55:37;102148.94;;;14.41;59.95
67697;BME280;54486;51.442;6.778;2023-05-24T08:58:05;102149.81;;;14.42;60.40
67697;BME280;54486;51.442;6.778;2023-05-24T09:00:32;102153.25;;;14.30;58.68
67697;BME280;54486;51.442;6.778;2023-05-24T09:03:00;102151.50;;;14.30;60.78
67697;BME280;54486;51.442;6.778;2023-05-24T09:05:27;102151.53;;;14.27;60.95
67697;BME280;54486;51.442;6.778;2023-05-24T09:07:57;102141.03;;;14.40;61.29
67697;BME280;54486;51.442;6.778;2023-05-24T09:10:26;102144.53;;;14.14;60.80
67697;BME280;54486;51.442;6.778;2023-05-24T09:13:14;102149.78;;;14.14;60.50
67697;BME280;54486;51.442;6.778;2023-05-24T09:15:42;102151.50;;;13.85;62.84
67697;BME280;54486;51.442;6.778;2023-05-24T09:18:11;102144.53;;;13.84;63.80
67697;BME280;54486;51.442;6.778;2023-05-24T09:20:38;102155.00;;;13.78;63.76
67697;BME280;54486;51.442;6.778;2023-05-24T09:23:05;102156.75;;;13.88;63.88
67697;BME280;54486;51.442;6.778;2023-05-24T09:25:34;102149.78;;;13.99;64.99
67697;BME280;54486;51.442;6.778;2023-05-24T09:28:05;102160.28;;;14.14;63.53
67697;BME280;54486;51.442;6.778;2023-05-24T09:30:35;102149.75;;;14.26;63.29
67697;BME280;54486;51.442;6.778;2023-05-24T09:33:02;102155.00;;;14.29;59.29
67697;BME280;54486;51.442;6.778;2023-05-24T09:35:31;102155.00;;;14.29;60.10
67697;BME280;54486;51.442;6.778;2023-05-24T09:37:59;102149.78;;;14.48;61.61
67697;BME280;54486;51.442;6.778;2023-05-24T09:40:28;102152.41;;;14.64;60.20
67697;BME280;54486;51.442;6.778;2023-05-24T09:43:03;102147.97;;;14.80;59.98
67697;BME280;54486;51.442;6.778;2023-05-24T09:45:30;102143.56;;;14.93;59.44
67697;BME280;54486;51.442;6.778;2023-05-24T09:47:58;102146.16;;;14.91;57.04
67697;BME280;54486;51.442;6.778;2023-05-24T09:50:25;102139.19;;;14.93;58.31
67697;BME280;54486;51.442;6.778;2023-05-24T09:52:55;102138.22;;;15.15;60.00
67697;BME280;54486;51.442;6.778;2023-05-24T09:55:22;102140.84;;;15.09;57.68
67697;BME280;54486;51.442;6.778;2023-05-24T09:57:51;102125.97;;;15.04;58.52
67697;BME280;54486;51.442;6.778;2023-05-24T10:00:22;102126.91;;;14.89;57.67
67697;BME280;54486;51.442;6.778;2023-05-24T10:03:03;102126.97;;;14.68;58.82
67697;BME280;54486;51.442;6.778;2023-05-24T10:05:30;102130.47;;;14.70;60.06
67697;BME280;54486;51.442;6.778;2023-05-24T10:08:00;102121.72;;;14.65;58.86
67697;BME280;54486;51.442;6.778;2023-05-24T10:10:29;102126.13;;;14.64;59.27
67697;BME280;54486;51.442;6.778;2023-05-24T10:12:58;102132.22;;;14.77;58.16
67697;BME280;54486;51.442;6.778;2023-05-24T10:15:25;102140.94;;;14.82;55.97
67697;BME280;54486;51.442;6.778;2023-05-24T10:17:55;102140.94;;;14.88;55.93
67697;BME280;54486;51.442;6.778;2023-05-24T10:20:23;102140.03;;;14.91;56.60
67697;BME280;54486;51.442;6.778;2023-05-24T10:22:58;102142.63;;;15.01;56.06
67697;BME280;54486;51.442;6.778;2023-05-24T10:25:28;102136.41;;;15.19;57.76
67697;BME280;54486;51.442;6.778;2023-05-24T10:28:07;102138.97;;;15.35;55.98
67697;BME280;54486;51.442;6.778;2023-05-24T10:30:47;102135.38;;;15.55;54.84
67697;BME280;54486;51.442;6.778;2023-05-24T10:33:18;102126.63;;;15.53;51.53
67697;BME280;54486;51.442;6.778;2023-05-24T10:35:47;102129.25;;;15.56;53.44
67697;BME280;54486;51.442;6.778;2023-05-24T10:38:19;102131.84;;;15.62;53.23
67697;BME280;54486;51.442;6.778;2023-05-24T10:40:47;102125.66;;;15.67;52.81
67697;BME280;54486;51.442;6.778;2023-05-24T10:43:16;102124.75;;;15.73;52.60
67697;BME280;54486;51.442;6.778;2023-05-24T10:45:47;102128.16;;;15.87;52.78
67697;BME280;54486;51.442;6.778;2023-05-24T10:50:43;102131.50;;;16.07;52.93
67697;BME280;54486;51.442;6.778;2023-05-24T10:53:14;102124.50;;;16.03;52.94
67697;BME280;54486;51.442;6.778;2023-05-24T10:56:02;102120.97;;;16.07;53.71
67697;BME280;54486;51.442;6.778;2023-05-24T11:01:00;102127.41;;;15.68;53.95
67697;BME280;54486;51.442;6.778;2023-05-24T11:03:34;102123.06;;;15.63;56.30
67697;BME280;54486;51.442;6.778;2023-05-24T11:06:02;102123.09;;;15.60;57.10
67697;BME280;54486;51.442;6.778;2023-05-24T11:08:33;102127.53;;;15.38;55.09
67697;BME280;54486;51.442;6.778;2023-05-24T11:11:07;102130.19;;;15.40;56.97
67697;BME280;54486;51.442;6.778;2023-05-24T11:13:54;102131.97;;;15.38;54.95
67697;BME280;54486;51.442;6.778;2023-05-24T11:16:37;102130.25;;;15.30;55.55
67697;BME280;54486;51.442;6.778;2023-05-24T11:19:44;102128.56;;;15.14;57.32
67697;BME280;54486;51.442;6.778;2023-05-24T11:22:13;102127.69;;;15.15;59.23
67697;BME280;54486;51.442;6.778;2023-05-24T11:24:41;102137.31;;;15.13;59.31
67697;BME280;54486;51.442;6.778;2023-05-24T11:27:10;102135.56;;;15.09;57.99
67697;BME280;54486;51.442;6.778;2023-05-24T11:29:44;102132.09;;;15.07;58.43
67697;BME280;54486;51.442;6.778;2023-05-24T11:32:18;102128.59;;;15.08;58.08
67697;BME280;54486;51.442;6.778;2023-05-24T11:34:47;102126.81;;;15.15;58.98
67697;BME280;54486;51.442;6.778;2023-05-24T11:37:15;102123.25;;;15.23;58.92
67697;BME280;54486;51.442;6.778;2023-05-24T11:40:01;102131.97;;;15.34;58.44
67697;BME280;54486;51.442;6.778;2023-05-24T11:42:32;102128.41;;;15.48;58.26
67697;BME280;54486;51.442;6.778;2023-05-24T11:44:59;102131.88;;;15.56;57.67
67697;BME280;54486;51.442;6.778;2023-05-24T11:47:26;102129.28;;;15.48;56.89
67697;BME280;54486;51.442;6.778;2023-05-24T11:49:54;102125.75;;;15.55;58.79
67697;BME280;54486;51.442;6.778;2023-05-24T11:52:21;102123.13;;;15.57;57.42
67697;BME280;54486;51.442;6.778;2023-05-24T11:54:48;102124.78;;;15.64;58.12
67697;BME280;54486;51.442;6.778;2023-05-24T11:57:18;102128.41;;;15.54;57.59
67697;BME280;54486;51.442;6.778;2023-05-24T11:59:48;102125.78;;;15.42;57.26
67697;BME280;54486;51.442;6.778;2023-05-24T12:02:15;102128.41;;;15.42;56.54
67697;BME280;54486;51.442;6.778;2023-05-24T12:04:42;102133.66;;;15.49;56.82
67697;BME280;54486;51.442;6.778;2023-05-24T12:07:10;102122.97;;;15.78;56.31
67697;BME280;54486;51.442;6.778;2023-05-24T12:09:40;102127.13;;;16.08;56.68
67697;BME280;54486;51.442;6.778;2023-05-24T12:12:08;102120.59;;;16.43;56.12
67697;BME280;54486;51.442;6.778;2023-05-24T12:14:35;102119.81;;;16.34;54.45
67697;BME280;54486;51.442;6.778;2023-05-24T12:17:02;102128.44;;;16.53;55.56
67697;BME280;54486;51.442;6.778;2023-05-24T12:19:31;102118.50;;;16.79;55.54
67697;BME280;54486;51.442;6.778;2023-05-24T12:22:04;102123.72;;;16.85;55.26
67697;BME280;54486;51.442;6.778;2023-05-24T12:24:32;102116.78;;;16.78;55.14
67697;BME280;54486;51.442;6.778;2023-05-24T12:27:02;102119.25;;;16.90;53.00
67697;BME280;54486;51.442;6.778;2023-05-24T12:29:37;102120.25;;;16.80;51.82
67697;BME280;54486;51.442;6.778;2023-05-24T12:32:06;102116.28;;;17.17;53.08
67697;BME280;54486;51.442;6.778;2023-05-24T12:34:42;102119.44;;;17.43;52.92
67697;BME280;54486;51.442;6.778;2023-05-24T12:37:11;102107.59;;;17.72;51.87
67697;BME280;54486;51.442;6.778;2023-05-24T12:39:39;102111.91;;;17.79;52.47
67697;BME280;54486;51.442;6.778;2023-05-24T12:42:11;102102.16;;;17.81;52.14
67697;BME280;54486;51.442;6.778;2023-05-24T12:44:41;102115.00;;;17.45;51.22
67697;BME280;54486;51.442;6.778;2023-05-24T12:47:08;102103.91;;;17.22;51.24
67697;BME280;54486;51.442;6.778;2023-05-24T12:49:35;102106.69;;;17.13;52.29
67697;BME280;54486;51.442;6.778;2023-05-24T12:52:03;102100.56;;;17.08;52.46
67697;BME280;54486;51.442;6.778;2023-05-24T12:54:31;102109.00;;;17.33;50.35
67697;BME280;54486;51.442;6.778;2023-05-24T12:56:58;102098.69;;;17.19;49.90
67697;BME280;54486;51.442;6.778;2023-05-24T12:59:27;102101.50;;;17.06;51.16
67697;BME280;54486;51.442;6.778;2023-05-24T13:01:55;102098.69;;;17.19;51.33
67697;BME280;54486;51.442;6.778;2023-05-24T13:04:23;102105.22;;;16.88;51.33
67697;BME280;54486;51.442;6.778;2023-05-24T13:06:52;102104.25;;;16.97;53.42
67697;BME280;54486;51.442;6.778;2023-05-24T13:09:20;102104.38;;;16.86;51.99
67697;BME280;54486;51.442;6.778;2023-05-24T13:11:50;102097.34;;;16.85;54.44
67697;BME280;54486;51.442;6.778;2023-05-24T13:14:17;102106.03;;;16.93;54.14
67697;BME280;54486;51.442;6.778;2023-05-24T13:16:45;102105.88;;;17.05;53.75
67697;BME280;54486;51.442;6.778;2023-05-24T13:19:12;102105.34;;;17.44;53.55
67697;BME280;54486;51.442;6.778;2023-05-24T13:21:40;102103.09;;;17.80;51.12